Burdock, South Dakota
Current Conditions -  °F | °C
As of 11:53 PM on Thursday 27 Nov 2014 (Local Time) from KCUT Reporting Station
Clear Clear  
Wind Chill: 36°   Ceiling: Unl
Heat Index: 40°   Visibility: 10mi
Dew Point: 25°   Wind: 6mph
Humidity: 55%   Direction: 220°SW
Pressure: 29.9"   Gusts: NA
Location:  43.1994°N, 103.759°W
Report Text: KCUT 280653Z AUTO 22005KT 10SM CLR 04/M04 A2990 RMK AO2 SLP107 T00441039 401061067
Loading
Personal Weather Stations






























Interactive Weather Map New forecast layout! Learn more

10-Day Weather Forecast

Advertisements
Track Severe Weather on mobile